Bookmark and Share
Track history (hours):
 

Callsign OS8154 (name unknown)

Last reported at 2013-Nov-14 19:00 UTC. Time now 2014-Apr-17 03:53 UTC.
Position N 69°24' W 124°30'.
Warning: this ship's position is months out of date.

Barometer 985.1 mb
Air temperature -10.3 ° C

NotesDate/timePositionNaut miles runAvg speedWind from/ knotsBaromVisibWave heightAir tempDewpointWater temp
2013-Nov-14 19:00N 69°24' W 124°30'0 0.0 985.1 -10.3
2013-Nov-14 17:00N 69°24' W 124°30'0 0.0 982.5 -10.3
2013-Nov-14 16:00N 69°24' W 124°30'0 0.0 982.3 -10.0
2013-Nov-14 15:00N 69°24' W 124°30'0 0.0 982.6 -10.3
2013-Nov-14 14:00N 69°24' W 124°30'0 0.0 983.9 -10.8
2013-Nov-14 13:00N 69°24' W 124°30'0 0.0 985.2 -10.5
2013-Nov-14 12:00N 69°24' W 124°30'0 0.0 986.7 -11.0
2013-Nov-14 11:00N 69°24' W 124°30'0 0.0 988.9 -11.5
2013-Nov-14 09:00N 69°24' W 124°30'0 0.0 992.0 -12.0
2013-Nov-14 08:00N 69°24' W 124°30'0 0.0 993.2 -12.5
2013-Nov-14 07:00N 69°24' W 124°30'0 0.0 995.3 -13.3
2013-Nov-14 06:00N 69°24' W 124°30'0 0.0 997.0 -13.8
2013-Nov-14 05:00N 69°24' W 124°30'0 0.0 998.1 -14.3
2013-Nov-14 04:00N 69°24' W 124°30'0 0.0 999.4 -14.3
2013-Nov-14 03:00N 69°24' W 124°30'0 0.0 1000.5 -13.8
2013-Nov-14 02:00N 69°24' W 124°30'0 0.0 1001.9 -13.5
2013-Nov-14 01:00N 69°24' W 124°30'0 0.0 1002.9 -14.3
2013-Nov-14 00:00N 69°24' W 124°30'0 0.0 1004.5 -14.3
2013-Nov-13 23:00N 69°24' W 124°30'0 0.0 1005.6 -14.5
2013-Nov-13 22:00N 69°24' W 124°30'0 0.0 1006.4 -14.8
2013-Nov-13 21:00N 69°24' W 124°30'0 0.0 1007.8 -14.3
2013-Nov-13 20:00N 69°24' W 124°30'0 0.0 1009.2 -14.5
2013-Nov-13 19:00N 69°24' W 124°30'0 0.0 1009.7 -15.3
2013-Nov-13 18:00N 69°24' W 124°30'0 0.0 1011.4 -14.3
2013-Nov-13 16:00N 69°24' W 124°30'0 0.0 1013.8 -15.0
2013-Nov-13 15:00N 69°24' W 124°30'0 0.0 1014.4 -14.8
2013-Nov-13 13:00N 69°24' W 124°30'0 0.0 1015.9 -14.3
2013-Nov-13 12:00N 69°24' W 124°30'0 0.0 1016.6 -14.5
2013-Nov-13 11:00N 69°24' W 124°30'0 0.0 1017.2 -14.0
2013-Nov-13 10:00N 69°24' W 124°30'0 0.0 1017.6 -14.3
2013-Nov-13 09:00N 69°24' W 124°30'0 0.0 1018.0 -14.5
2013-Nov-13 08:00N 69°24' W 124°30'0 0.0 1018.1 -13.8
2013-Nov-13 07:00N 69°24' W 124°30'0 0.0 1018.3 -13.0
2013-Nov-13 06:00N 69°24' W 124°30'0 0.0 1018.6 -12.3
2013-Nov-13 05:00N 69°24' W 124°30'0 0.0 1018.8 -13.0
2013-Nov-13 04:00N 69°24' W 124°30'0 0.0 1019.0 -13.3
2013-Nov-13 03:00N 69°24' W 124°30'0 0.0 1019.1 -12.8
2013-Nov-13 00:00N 69°24' W 124°30'0 0.0 1018.3 -10.5
2013-Nov-12 23:00N 69°24' W 124°30'0 0.0 1018.1 -10.3
2013-Nov-12 22:00N 69°24' W 124°30'0 0.0 1017.9 -10.5
2013-Nov-12 21:00N 69°24' W 124°30'0 0.0 1017.5 -10.3
2013-Nov-12 20:00N 69°24' W 124°30'0 0.0 1017.5 -9.3
2013-Nov-12 19:00N 69°24' W 124°30'0 0.0 1017.3 -8.5
2013-Nov-12 18:00N 69°24' W 124°30'0 0.0 1017.0 -9.3
2013-Nov-12 17:00N 69°24' W 124°30'0 0.0 1016.5 -8.8
2013-Nov-12 16:00N 69°24' W 124°30'0 0.0 1016.2 -9.0
2013-Nov-12 15:00N 69°24' W 124°30'0 0.0 1015.9 -9.5
2013-Nov-12 14:00N 69°24' W 124°30'0 0.0 1015.6 -9.0
2013-Nov-12 13:00N 69°24' W 124°30'0 0.0 1015.4 -9.0
2013-Nov-12 12:00N 69°24' W 124°30'0 0.0 1015.0 -9.5
2013-Nov-12 11:00N 69°24' W 124°30'0 0.0 1014.8 -9.3
2013-Nov-12 10:00N 69°24' W 124°30'0 0.0 1014.7 -8.8
2013-Nov-12 09:00N 69°24' W 124°30'0 0.0 1014.2 -8.5
2013-Nov-12 08:00N 69°24' W 124°30'0 0.0 1013.8 -7.0
2013-Nov-12 07:00N 69°24' W 124°30'0 0.0 1013.4 -6.8
2013-Nov-12 05:00N 69°24' W 124°30'0 0.0 1012.1 -6.0
2013-Nov-12 03:00N 69°24' W 124°30'0 0.0 1011.6 -6.5
2013-Nov-12 02:00N 69°24' W 124°30'0 0.0 1011.1 -6.5
2013-Nov-12 01:00N 69°24' W 124°30'0 0.0 1010.6 -6.3
2013-Nov-12 00:00N 69°24' W 124°30'0 0.0 1010.1 -6.0
2013-Nov-11 23:00N 69°24' W 124°30'0 0.0 1009.6 -5.3
2013-Nov-11 22:00N 69°24' W 124°30'0 0.0 1009.4 -4.8
2013-Nov-11 20:00N 69°24' W 124°30'0 0.0 1008.0 -5.5
2013-Nov-11 19:00N 69°24' W 124°30'0 0.0 1007.3 -5.3
2013-Nov-11 18:00N 69°24' W 124°30'0 0.0 1006.2 -4.5
2013-Nov-11 17:00N 69°24' W 124°30'0 0.0 1005.8 -4.5
2013-Nov-11 16:00N 69°24' W 124°30'0 0.0 1005.2 -4.5
2013-Nov-11 15:00N 69°24' W 124°30'0 0.0 1004.6 -3.5
2013-Nov-11 13:00N 69°24' W 124°30'0 0.0 1003.8 -3.5
2013-Nov-11 12:00N 69°24' W 124°30'0 0.0 1003.0 -2.8
2013-Nov-11 10:00N 69°24' W 124°30'0 0.0 1002.6 -2.8
2013-Nov-11 09:00N 69°24' W 124°30'0 0.0 1001.6 -2.8
2013-Nov-11 08:00N 69°24' W 124°30'0 0.0 1001.0 -2.0
2013-Nov-11 07:00N 69°24' W 124°30'0 0.0 1000.0 -1.8
2013-Nov-11 06:00N 69°24' W 124°30'0 0.0 998.8 -2.0
2013-Nov-11 05:00N 69°24' W 124°30'0 0.0 997.9 -1.5
2013-Nov-11 04:00N 69°24' W 124°30'0 0.0 997.5 -1.0
2013-Nov-11 03:00N 69°24' W 124°30'0 0.0 997.1 -0.8
2013-Nov-11 02:00N 69°24' W 124°30'0 0.0 996.2 -0.5
2013-Nov-11 01:00N 69°24' W 124°30'0 0.0 995.8 -0.8
2013-Nov-11 00:00N 69°24' W 124°30'0 0.0 995.0 -0.0
2013-Nov-10 23:00N 69°24' W 124°30'0 0.0 994.0 -0.0
2013-Nov-10 22:00N 69°24' W 124°30'0 0.0 993.0 -2.8
2013-Nov-10 21:00N 69°24' W 124°30'0 0.0 993.1 -4.0
2013-Nov-10 20:00N 69°24' W 124°30'0 0.0 993.5 -4.3
2013-Nov-10 19:00N 69°24' W 124°30'0 0.0 993.8 -5.3
2013-Nov-10 18:00N 69°24' W 124°30'0 0.0 993.7 -5.8
2013-Nov-10 17:00N 69°24' W 124°30'0 0.0 993.6 -5.3
2013-Nov-10 16:00N 69°24' W 124°30'0 0.0 995.5 -6.0
2013-Nov-10 14:00N 69°24' W 124°30'0 0.0 996.5 -6.3
2013-Nov-10 13:00N 69°24' W 124°30'0 0.0 998.4 -6.8
2013-Nov-10 12:00N 69°24' W 124°30'0 0.0 999.4 -7.0
2013-Nov-10 11:00N 69°24' W 124°30'0 0.0 1000.1 -7.0
2013-Nov-10 10:00N 69°24' W 124°30'0 0.0 1000.8 -7.8
2013-Nov-10 09:00N 69°24' W 124°30'0 0.0 1002.9 -7.5
2013-Nov-10 08:00N 69°24' W 124°30'0 0.0 1004.1 -8.3
2013-Nov-10 07:00N 69°24' W 124°30'0 0.0 1006.0 -8.5
2013-Nov-10 04:00N 69°24' W 124°30'0 0.0 1008.8 -9.5
2013-Nov-10 03:00N 69°24' W 124°30'0 0.0 1010.6 -10.0
2013-Nov-10 02:00N 69°24' W 124°30'0 0.0 1010.8 -10.5
2013-Nov-10 01:00N 69°24' W 124°30'0 0.0 1014.3 -11.8
2013-Nov-10 00:00N 69°24' W 124°30'0 0.0 1015.2 -12.3
2013-Nov-09 23:00N 69°24' W 124°30'0 0.0 1015.8 -13.0
2013-Nov-09 22:00N 69°24' W 124°30'0 0.0 1017.1 -13.3
2013-Nov-09 21:00N 69°24' W 124°30'0 0.0 1018.8 -13.5
2013-Nov-09 20:00N 69°24' W 124°30'0 0.0 1019.0 -14.8
2013-Nov-09 19:00N 69°24' W 124°30'0 0.0 1020.6 -15.0
2013-Nov-09 18:00N 69°24' W 124°30'0 0.0 1022.4 -16.5
2013-Nov-09 17:00N 69°24' W 124°30'0 0.0 1022.5 -16.5
2013-Nov-09 15:00N 69°24' W 124°30'0 0.0 1023.6 -18.3
2013-Nov-09 12:00N 69°24' W 124°30'0 0.0 1026.5 -18.3
2013-Nov-09 10:00N 69°24' W 124°30'0 0.0 1028.5 -18.5
2013-Nov-09 08:00N 69°24' W 124°30'0 0.0 1029.4 -18.3
2013-Nov-09 07:00N 69°24' W 124°30'0 0.0 1029.3 -17.0
2013-Nov-09 06:00N 69°24' W 124°30'0 0.0 1030.0 -18.3
2013-Nov-09 05:00N 69°24' W 124°30'0 0.0 1030.2 -18.0
2013-Nov-09 04:00N 69°24' W 124°30'0 0.0 1030.0 -17.0
2013-Nov-09 03:00N 69°24' W 124°30'0 0.0 1029.8 -17.0
2013-Nov-09 02:00N 69°24' W 124°30'0 0.0 1029.9 -18.5
2013-Nov-09 01:00N 69°24' W 124°30'0 0.0 1030.0 -19.8
2013-Nov-09 00:00N 69°24' W 124°30'0 0.0 1029.9 -17.5
2013-Nov-08 23:00N 69°24' W 124°30'0 0.0 1029.5 -17.8
2013-Nov-08 22:00N 69°24' W 124°30'0 0.0 1029.2 -16.8
2013-Nov-08 21:00N 69°24' W 124°30'0 0.0 1028.9 -16.8
2013-Nov-08 20:00N 69°24' W 124°30'0 0.0 1028.6 -17.3
2013-Nov-08 19:00N 69°24' W 124°30'0 0.0 1028.2 -17.3
2013-Nov-08 18:00N 69°24' W 124°30'0 0.0 1028.1 -16.5
2013-Nov-08 17:00N 69°24' W 124°30'0 0.0 1027.3 -16.8
2013-Nov-08 16:00N 69°24' W 124°30'0 0.0 1026.9 -16.8
2013-Nov-08 15:00N 69°24' W 124°30'0 0.0 1026.6 -17.5
2013-Nov-08 12:00N 69°24' W 124°30'0 0.0 1026.0 -18.5
2013-Nov-08 10:00N 69°24' W 124°30'0 0.0 1026.2 -17.5
2013-Nov-08 09:00N 69°24' W 124°30'0 0.0 1026.1 -18.3
2013-Nov-08 08:00N 69°24' W 124°30'0 0.0 1025.9 -18.0
2013-Nov-08 07:00N 69°24' W 124°30'0 0.0 1025.9 -18.3
2013-Nov-08 06:00N 69°24' W 124°30'0 0.0 1026.1 -17.8
2013-Nov-08 05:00N 69°24' W 124°30'0 0.0 1026.2 -17.8
2013-Nov-08 04:00N 69°24' W 124°30'0 0.0 1026.5 -18.5
2013-Nov-08 03:00N 69°24' W 124°30'0 0.0 1026.8 -19.0
2013-Nov-08 02:00N 69°24' W 124°30'0 0.0 1027.1 -19.3
2013-Nov-08 01:00N 69°24' W 124°30'0 0.0 1027.2 -19.3
2013-Nov-08 00:00N 69°24' W 124°30'0 0.0 1027.4 -19.8
2013-Nov-07 23:00N 69°24' W 124°30'0 0.0 1027.8 -18.8
2013-Nov-07 22:00N 69°24' W 124°30'0 0.0 1027.9 -18.5
2013-Nov-07 21:00N 69°24' W 124°30'0 0.0 1028.2 -18.3
2013-Nov-07 20:00N 69°24' W 124°30'0 0.0 1028.5 -18.5
2013-Nov-07 19:00N 69°24' W 124°30'0 0.0 1028.5 -17.5
2013-Nov-07 18:00N 69°24' W 124°30'0 0.0 1028.8 -17.0
2013-Nov-07 17:00N 69°24' W 124°30'0 0.0 1028.9 -16.0
2013-Nov-07 16:00N 69°24' W 124°30'0 0.0 1028.9 -16.3
2013-Nov-07 15:00N 69°24' W 124°30'0 0.0 1028.8 -16.3
2013-Nov-07 14:00N 69°24' W 124°30'0 0.0 1029.0 -15.5
2013-Nov-07 13:00N 69°24' W 124°30'0 0.0 1029.1 -15.3
2013-Nov-07 12:00N 69°24' W 124°30'0 0.0 1029.4 -15.5
2013-Nov-07 11:00N 69°24' W 124°30'0 0.0 1029.4 -15.5
2013-Nov-07 10:00N 69°24' W 124°30'0 0.0 1029.6 -16.0
2013-Nov-07 07:00N 69°24' W 124°30'0 0.0 1029.5 -14.8
2013-Nov-07 06:00N 69°24' W 124°30'0 0.0 1029.6 -14.0
2013-Nov-07 04:00N 69°24' W 124°30'0 0.0 1029.6 -11.0
2013-Nov-07 03:00N 69°24' W 124°30'0 0.0 1029.3 -10.8
2013-Nov-07 02:00N 69°24' W 124°30'0 0.0 1029.1 -10.8
2013-Nov-07 01:00N 69°24' W 124°30'0 0.0 1029.1 -10.8
2013-Nov-07 00:00N 69°24' W 124°30'0 0.0 1028.8 -10.5
2013-Nov-06 22:00N 69°24' W 124°30'0 0.0 1027.7 -10.0
2013-Nov-06 21:00N 69°24' W 124°30'0 0.0 1026.7 -9.0
2013-Nov-06 20:00N 69°24' W 124°30'0 0.0 1026.2 -8.3
2013-Nov-06 19:00N 69°24' W 124°30'0 0.0 1025.2 -8.3
2013-Nov-06 17:00N 69°24' W 124°30'0 0.0 1022.9 -7.8
2013-Nov-06 16:00N 69°24' W 124°30'0 0.0 1021.7 -7.5
2013-Nov-06 15:00N 69°24' W 124°30'0 0.0 1020.7 -7.0
2013-Nov-06 14:00N 69°24' W 124°30'0 0.0 1019.1 -6.3
2013-Nov-06 12:00N 69°24' W 124°30'0 0.0 1016.7 -5.5
2013-Nov-06 11:00N 69°24' W 124°30'0 0.0 1015.9 -5.3
2013-Nov-06 10:00N 69°24' W 124°30'0 0.0 1015.4 -5.3
2013-Nov-06 09:00N 69°24' W 124°30'0 0.0 1014.9 -5.3
2013-Nov-06 07:00N 69°24' W 124°30'0 0.0 1012.8 -5.0
2013-Nov-06 06:00N 69°24' W 124°30'0 0.0 1011.8 -4.5
2013-Nov-06 05:00N 69°24' W 124°30'0 0.0 1011.0 -4.8
2013-Nov-06 04:00N 69°24' W 124°30'0 0.0 1010.4 -4.3
2013-Nov-06 03:00N 69°24' W 124°30'0 0.0 1009.6 -4.5
2013-Nov-06 02:00N 69°24' W 124°30'0 0.0 1009.0 -4.5
2013-Nov-06 01:00N 69°24' W 124°30'0 0.0 1008.3 -4.8
2013-Nov-06 00:00N 69°24' W 124°30'0 0.0 1007.9 -5.0
2013-Nov-05 23:00N 69°24' W 124°30'0 0.0 1007.4 -4.8
2013-Nov-05 22:00N 69°24' W 124°30'0 0.0 1007.0 -4.8
2013-Nov-05 21:00N 69°24' W 124°30'0 0.0 1006.8 -4.5
2013-Nov-05 19:00N 69°24' W 124°30'0 0.0 1005.8 -4.5
2013-Nov-05 18:00N 69°24' W 124°30'0 0.0 1005.6 -4.8
2013-Nov-05 16:00N 69°24' W 124°30'0 0.0 1005.3 -2.0
2013-Nov-05 14:00N 69°24' W 124°30'0 0.0 1004.2 -1.5
2013-Nov-05 13:00N 69°24' W 124°30'0 0.0 1004.3 -1.3
2013-Nov-05 11:00N 69°24' W 124°30'0 0.0 1004.6 -1.3
2013-Nov-05 09:00N 69°24' W 124°30'0 0.0 1004.9 -1.8
2013-Nov-05 08:00N 69°24' W 124°30'0 0.0 1004.8 -1.5
2013-Nov-05 07:00N 69°24' W 124°30'0 0.0 1004.8 -1.0
2013-Nov-05 06:00N 69°24' W 124°30'0 0.0 1004.7 -1.3
2013-Nov-05 05:00N 69°24' W 124°30'0 0.0 1005.2 -1.3
2013-Nov-05 04:00N 69°24' W 124°30'0 0.0 1005.0 -1.3
2013-Nov-05 03:00N 69°24' W 124°30'0 0.0 1004.4 -1.3
2013-Nov-05 02:00N 69°24' W 124°30'0 0.0 1004.7 -2.0
2013-Nov-05 01:00N 69°24' W 124°30'0 0.0 1005.3 -3.0
2013-Nov-05 00:00N 69°24' W 124°30'0 0.0 1005.5 -3.3
2013-Nov-04 23:00N 69°24' W 124°30'0 0.0 1005.4 -3.8
2013-Nov-04 22:00N 69°24' W 124°30'0 0.0 1005.5 -4.3
2013-Nov-04 21:00N 69°24' W 124°30'0 0.0 1006.3 -4.8
2013-Nov-04 20:00N 69°24' W 124°30'0 0.0 1006.8 -4.5
2013-Nov-04 19:00N 69°24' W 124°30'   1007.8 -4.0

Dump ship's entire track history

sailing weather and tide predictions

Ship Status Report: callsign OS8154